Airfield :
LOGIN :

Register | Disclaimer

   EN    FR    IT 

 










Legend :    VFR   Marginal VFR   IFR   Intensive IFR   Very Intensive IFR
Visi :
Ceiling :
>= 8 km
>= 3000ft
5 to 8 km
1000 to 3000 ft
1500m to 5 km
500 to 1000 ft
800 to 1500m
200 to 500 ft
< 800m
< 200 ft
Symbols :   Thunderstorms  Fog  Heavy snow  Heavy precipitations  Wind > 20 kt
SIGMETs :     Misc.  Thunderstorms  Icing  Turbulence  Mountain Waves  Volcanic Ashes






- Airport Elevation : 1487 ft
- IATA code : MUC


EDDM - München Franz Josef Strauss

CURRENT METAR :
  • 130420Z 11004KT 5000 BR BKN004 M01/M02 Q0987 BECMG BKN006

EXPIRED METARs :
  • 130350Z 10007KT 3500 BR BKN003 M01/M02 Q0987 BECMG 6000 BKN006
  • 130320Z 10008KT 2000 BCFG BKN003 M02/M02 Q0988 BECMG 3000
  • 130250Z 09006KT 2000 BCFG BKN002 M02/M02 Q0989 BECMG 3000
  • 130220Z 10009KT 1500 0500E R26R/P2000N R26L/P2000N BCFG SCT003 M02/M02 Q0989 TEMPO 0500 FZFG BKN003
  • 130150Z 10007KT 1500 0500E R26R/P2000N R26L/0750VP2000U BCFG FEW004 M02/M03 Q0990 TEMPO 0500 FZFG BKN004

TAF AMD TAF EDDM
Valid from the 13 at 02:00 until the 14 at 06:00 UTC


130244Z 1302/1406 12007KT CAVOK
PROB30
TEMPO 1302/1306 2000 BCFG BKN004
PROB30
TEMPO 1306/1310 -FZRA BKN004
TEMPO 1310/1313 4500 -RASN BKN012
PROB30
TEMPO 1310/1312 2500 SN
BECMG 1312/1314 23011KT
TEMPO 1312/1324 25015G25KT



MET'MAP, your aeronautical weather chart ! - Copyright ORBIFLY December 2007 - Disclaimer

ORBIFLY MET'MAP TEAM :

Programming & Development : Alexandra Zaïnal
Concept & original design : Baudouin d'Aumeries
Assistance for programming : Marc-Olivier Méhu
Technical & hardware support : Manuel Goepfert

Contact : metmap@orbifly.com




SOURCES & CREDITS :

   NOAA